Terminal Aerodrome Forecast
Issued by NWS

Home | Current Version | Previous Version | Text Only | Print | Product List | Glossary On
Versions: 1 2 3 4 5 6 7 8 9 10 11 12
000
FTUS45 KLKN 181120
TAFELY
TAF
KELY 181120Z 1812/1912 17009KT P6SM SCT200
     FM182000 34006KT P6SM SCT150 BKN200
     FM190300 17009KT P6SM SCT150=

USA.gov is the U.S. government's official web portal to all federal, state and local government web resources and services.